Time;durP1;ratioP1;P1;durP2;ratioP2;P2;SDS_P1;SDS_P2;PMS_P1;PMS_P2;Temp;Humidity;BMP_temperature;BMP_pressure;BME280_temperature;BME280_humidity;BME280_pressure;Samples;Min_cycle;Max_cycle;Signal;HPM_P1;HPM_P2
2021/10/12 00:00:34;;;;;;;492.10;468.67;;;10.50;99.90;;;;;;5033068;28;20492;-84
2021/10/12 00:03:02;;;;;;;716.30;677.70;;;10.50;99.90;;;;;;5034282;28;20448;-84
2021/10/12 00:05:29;;;;;;;803.53;756.27;;;10.40;99.90;;;;;;5033873;28;20484;-81
2021/10/12 00:07:56;;;;;;;827.47;776.87;;;10.50;99.90;;;;;;5034005;28;20535;-82
2021/10/12 00:10:23;;;;;;;832.73;780.33;;;10.20;99.90;;;;;;5033990;28;20510;-83
2021/10/12 00:12:49;;;;;;;843.70;789.60;;;10.30;99.90;;;;;;5033856;28;20473;-85
2021/10/12 00:15:16;;;;;;;867.03;810.73;;;10.40;99.90;;;;;;5032686;28;20543;-82
2021/10/12 00:17:43;;;;;;;873.93;816.07;;;10.20;99.90;;;;;;5033781;28;20587;-83
2021/10/12 00:20:14;;;;;;;886.33;825.93;;;10.20;99.90;;;;;;5033888;28;20546;-84
2021/10/12 00:22:41;;;;;;;884.10;822.87;;;10.30;99.90;;;;;;5033759;28;20504;-82
2021/10/12 00:25:08;;;;;;;883.10;820.73;;;10.20;99.90;;;;;;5033729;28;20545;-83
2021/10/12 00:27:35;;;;;;;891.93;828.17;;;10.20;99.90;;;;;;5033677;28;20475;-84
2021/10/12 00:30:02;;;;;;;892.30;828.47;;;10.20;99.90;;;;;;5032581;28;20931;-83
2021/10/12 00:32:29;;;;;;;890.07;825.87;;;10.10;99.90;;;;;;5033418;28;20456;-83
2021/10/12 00:34:56;;;;;;;887.57;825.00;;;10.20;99.90;;;;;;5033452;28;20460;-84
2021/10/12 00:37:24;;;;;;;892.47;827.37;;;10.20;99.90;;;;;;5033541;28;20476;-84
2021/10/12 00:39:52;;;;;;;900.97;835.40;;;10.10;99.90;;;;;;5033388;28;20474;-83
2021/10/12 00:42:19;;;;;;;892.10;824.93;;;10.10;99.90;;;;;;5033392;28;20456;-83
2021/10/12 00:44:46;;;;;;;892.87;826.53;;;10.20;99.90;;;;;;5032149;28;20981;-84
2021/10/12 00:47:13;;;;;;;898.67;831.80;;;10.20;99.90;;;;;;5033212;28;20460;-83
2021/10/12 00:49:40;;;;;;;893.47;827.10;;;10.20;99.90;;;;;;5033448;28;20551;-83
2021/10/12 00:52:07;;;;;;;894.63;827.67;;;10.30;99.90;;;;;;5033192;28;20548;-83
2021/10/12 00:54:36;;;;;;;895.80;827.93;;;10.20;99.90;;;;;;5033210;28;20456;-83
2021/10/12 00:57:04;;;;;;;890.50;824.30;;;10.20;99.90;;;;;;5032951;28;20991;-83
2021/10/12 00:59:34;;;;;;;874.27;807.40;;;10.20;99.90;;;;;;5032347;28;20475;-83
2021/10/12 01:02:02;;;;;;;886.80;822.70;;;10.20;99.90;;;;;;5033076;28;20556;-83
2021/10/12 01:04:29;;;;;;;892.43;828.40;;;10.30;99.90;;;;;;5033127;28;20448;-83
2021/10/12 01:06:56;;;;;;;890.03;826.23;;;10.20;99.90;;;;;;5033100;28;20486;-83
2021/10/12 01:09:23;;;;;;;890.97;828.03;;;10.30;99.90;;;;;;5033054;28;20518;-83
2021/10/12 01:11:51;;;;;;;892.40;830.20;;;10.20;99.90;;;;;;5032984;28;20483;-83
2021/10/12 01:14:18;;;;;;;873.47;812.27;;;10.20;99.90;;;;;;5032856;28;20487;-82
2021/10/12 01:16:45;;;;;;;889.80;826.40;;;10.10;99.90;;;;;;5031987;28;20474;-82
2021/10/12 01:19:13;;;;;;;903.97;838.83;;;10.20;99.90;;;;;;5033004;28;20868;-82
2021/10/12 01:21:43;;;;;;;882.63;817.07;;;10.00;99.90;;;;;;5032773;28;20460;-82
2021/10/12 01:24:11;;;;;;;879.77;813.73;;;10.20;99.90;;;;;;5033068;28;20552;-82
2021/10/12 01:26:39;;;;;;;900.53;832.87;;;10.10;99.90;;;;;;5032782;28;20484;-82
2021/10/12 01:29:07;;;;;;;896.13;828.87;;;10.20;99.90;;;;;;5032966;28;20880;-82
2021/10/12 01:31:34;;;;;;;901.53;833.50;;;10.20;99.90;;;;;;5031498;28;20488;-82
2021/10/12 01:34:11;;;;;;;891.43;823.73;;;10.10;99.90;;;;;;5032715;28;20944;-83
2021/10/12 01:36:38;;;;;;;873.67;806.27;;;10.10;99.90;;;;;;5032813;28;20531;-82
2021/10/12 01:39:06;;;;;;;896.50;828.00;;;10.10;99.90;;;;;;5032746;28;20484;-83
2021/10/12 01:41:33;;;;;;;888.90;820.60;;;10.00;99.90;;;;;;5032706;28;20884;-83
2021/10/12 01:44:00;;;;;;;895.13;826.57;;;10.00;99.90;;;;;;5032772;28;20547;-83
2021/10/12 01:46:27;;;;;;;894.53;825.10;;;10.00;99.90;;;;;;5031790;28;20493;-83
2021/10/12 01:48:54;;;;;;;884.87;817.60;;;10.10;99.90;;;;;;5033003;28;20803;-82
2021/10/12 01:51:21;;;;;;;881.80;815.20;;;10.00;99.90;;;;;;5032557;28;20535;-82
2021/10/12 01:53:48;;;;;;;887.13;820.87;;;10.00;99.90;;;;;;5032367;28;20879;-82
2021/10/12 01:56:16;;;;;;;879.17;813.07;;;10.10;99.90;;;;;;5032401;28;20506;-82
2021/10/12 01:58:50;;;;;;;882.50;814.93;;;9.90;99.90;;;;;;5032475;28;20543;-82
2021/10/12 02:01:20;;;;;;;871.50;805.30;;;10.10;99.90;;;;;;5031146;28;20546;-83
2021/10/12 02:03:47;;;;;;;880.27;813.53;;;10.00;99.90;;;;;;5032431;28;20543;-83
2021/10/12 02:06:14;;;;;;;878.57;810.90;;;10.00;99.90;;;;;;5032398;28;20452;-83
2021/10/12 02:08:41;;;;;;;879.47;813.00;;;10.00;99.90;;;;;;5032334;28;20551;-82
2021/10/12 02:11:08;;;;;;;809.93;746.50;;;10.10;99.90;;;;;;5032356;28;20567;-81
2021/10/12 02:13:36;;;;;;;840.37;776.10;;;10.00;99.90;;;;;;5035009;28;20452;-83
2021/10/12 02:16:04;;;;;;;869.57;803.07;;;10.00;99.90;;;;;;5034966;28;20460;-84
2021/10/12 02:18:32;;;;;;;859.30;792.43;;;9.90;99.90;;;;;;5035967;28;20856;-83
2021/10/12 02:20:59;;;;;;;853.13;785.50;;;10.00;99.90;;;;;;5035943;28;20456;-83
2021/10/12 02:23:27;;;;;;;853.37;787.80;;;10.00;99.90;;;;;;5035997;28;20547;-83
2021/10/12 02:25:56;;;;;;;864.87;798.57;;;10.00;99.90;;;;;;5036010;28;20815;-83
2021/10/12 02:28:23;;;;;;;866.47;801.40;;;10.00;99.90;;;;;;5035912;28;20546;-84
2021/10/12 02:30:51;;;;;;;859.70;794.50;;;10.00;99.90;;;;;;5034779;28;20452;-83
2021/10/12 02:33:18;;;;;;;865.40;800.53;;;10.00;99.90;;;;;;5035742;28;20510;-84
2021/10/12 02:35:45;;;;;;;873.40;808.17;;;9.90;99.90;;;;;;5035558;28;20452;-83
2021/10/12 02:38:12;;;;;;;871.67;805.43;;;9.90;99.90;;;;;;5035573;28;20574;-83
2021/10/12 02:40:38;;;;;;;871.97;806.73;;;9.90;99.90;;;;;;5035719;28;20460;-83
2021/10/12 02:43:05;;;;;;;873.23;807.60;;;10.00;99.90;;;;;;5035736;28;20827;-83
2021/10/12 02:45:32;;;;;;;875.30;808.20;;;9.90;99.90;;;;;;5034602;28;20560;-83
2021/10/12 02:48:01;;;;;;;874.03;809.20;;;9.90;99.90;;;;;;5035392;28;20463;-83
2021/10/12 02:50:28;;;;;;;893.37;827.10;;;9.80;99.90;;;;;;5035469;28;20495;-82
2021/10/12 02:52:55;;;;;;;889.13;823.30;;;9.80;99.90;;;;;;5035472;28;20467;-84
2021/10/12 02:55:21;;;;;;;891.30;824.33;;;9.80;99.90;;;;;;5035379;28;20452;-83
2021/10/12 02:57:50;;;;;;;896.63;829.10;;;9.80;99.90;;;;;;5035181;28;20947;-82
2021/10/12 03:00:17;;;;;;;896.83;830.17;;;9.80;99.90;;;;;;5033994;28;20539;-83
2021/10/12 03:02:44;;;;;;;899.83;833.43;;;9.80;99.90;;;;;;5035238;28;20452;-84
2021/10/12 03:05:13;;;;;;;898.07;830.83;;;9.70;99.90;;;;;;5035192;28;20547;-83
2021/10/12 03:07:40;;;;;;;896.00;829.80;;;9.70;99.90;;;;;;5035174;28;20492;-84
2021/10/12 03:10:08;;;;;;;902.83;835.37;;;9.80;99.90;;;;;;5035098;28;20936;-82
2021/10/12 03:12:35;;;;;;;907.73;839.17;;;9.70;99.90;;;;;;5035154;28;20461;-83
2021/10/12 03:15:02;;;;;;;908.30;840.00;;;9.80;99.90;;;;;;5033740;28;21011;-83
2021/10/12 03:17:29;;;;;;;907.57;839.80;;;9.70;99.90;;;;;;5034793;28;20452;-82
2021/10/12 03:19:56;;;;;;;914.13;845.77;;;9.70;99.90;;;;;;5034982;28;20530;-82
2021/10/12 03:22:24;;;;;;;913.97;845.20;;;9.70;99.90;;;;;;5034864;28;20456;-83
2021/10/12 03:24:51;;;;;;;910.77;843.43;;;9.70;99.90;;;;;;5033545;28;20543;-82
2021/10/12 03:27:18;;;;;;;904.57;837.53;;;9.60;99.90;;;;;;5034818;28;20825;-82
2021/10/12 03:29:45;;;;;;;908.87;840.37;;;9.80;99.90;;;;;;5033527;28;20982;-82
2021/10/12 03:32:11;;;;;;;915.40;846.27;;;9.70;99.90;;;;;;5034631;28;20480;-82
2021/10/12 03:34:38;;;;;;;908.50;840.30;;;9.60;99.90;;;;;;5034696;28;20476;-83
2021/10/12 03:37:05;;;;;;;909.03;840.13;;;9.60;99.90;;;;;;5034527;28;20456;-82
2021/10/12 03:39:33;;;;;;;910.70;840.90;;;9.60;99.90;;;;;;5034590;28;20496;-82
2021/10/12 03:42:00;;;;;;;911.50;839.83;;;9.50;99.90;;;;;;5034568;28;20880;-81
2021/10/12 03:44:29;;;;;;;921.10;849.37;;;9.60;99.90;;;;;;5034305;28;21032;-83
2021/10/12 03:46:55;;;;;;;918.70;847.47;;;9.50;99.90;;;;;;5033687;28;20464;-82
2021/10/12 03:49:22;;;;;;;921.57;848.80;;;9.50;99.90;;;;;;5034381;28;20456;-82
2021/10/12 03:51:49;;;;;;;913.83;844.50;;;9.70;99.90;;;;;;5034263;28;20969;-81
2021/10/12 03:54:16;;;;;;;907.83;836.53;;;9.60;99.90;;;;;;5034362;28;20475;-82
2021/10/12 03:56:44;;;;;;;907.53;838.27;;;9.60;99.90;;;;;;5034110;28;21047;-82
2021/10/12 03:59:11;;;;;;;913.90;843.33;;;9.60;99.90;;;;;;5033965;28;20488;-81
2021/10/12 04:01:38;;;;;;;890.03;821.40;;;9.60;99.90;;;;;;5032989;28;20456;-82
2021/10/12 04:04:05;;;;;;;892.80;825.30;;;9.60;99.90;;;;;;5034186;28;20452;-82
2021/10/12 04:06:32;;;;;;;898.13;831.90;;;9.60;99.90;;;;;;5033941;28;20460;-82
2021/10/12 04:08:59;;;;;;;892.70;825.80;;;9.60;99.90;;;;;;5034279;28;20455;-82
2021/10/12 04:11:26;;;;;;;886.60;821.63;;;9.70;99.90;;;;;;5033828;28;20974;-84
2021/10/12 04:13:54;;;;;;;888.43;823.77;;;9.70;99.90;;;;;;5033920;28;20547;-83
2021/10/12 04:16:21;;;;;;;888.80;825.23;;;9.70;99.90;;;;;;5032810;28;20457;-82
2021/10/12 04:18:48;;;;;;;890.93;828.53;;;9.60;99.90;;;;;;5033884;28;20519;-83
2021/10/12 04:21:14;;;;;;;882.37;819.97;;;9.70;99.90;;;;;;5033871;28;20452;-82
2021/10/12 04:23:41;;;;;;;880.47;818.47;;;9.60;99.90;;;;;;5033744;28;20456;-82
2021/10/12 04:26:11;;;;;;;887.53;826.13;;;9.70;99.90;;;;;;5033617;28;20535;-83
2021/10/12 04:28:38;;;;;;;884.37;823.60;;;9.70;99.90;;;;;;5033725;28;20479;-81
2021/10/12 04:31:07;;;;;;;869.33;810.00;;;9.70;99.90;;;;;;5032435;28;20479;-81
2021/10/12 04:33:34;;;;;;;863.20;803.33;;;9.70;99.90;;;;;;5033695;28;20539;-81
2021/10/12 04:36:01;;;;;;;859.23;801.63;;;9.70;99.90;;;;;;5033012;28;20551;-82
2021/10/12 04:38:28;;;;;;;873.77;816.20;;;9.80;99.90;;;;;;5034545;28;20587;-82
2021/10/12 04:40:55;;;;;;;869.10;813.33;;;9.70;99.90;;;;;;5033322;28;20460;-80
2021/10/12 04:43:22;;;;;;;874.93;819.23;;;9.80;99.90;;;;;;5033431;28;20496;-82
2021/10/12 04:45:49;;;;;;;864.77;811.47;;;9.80;99.90;;;;;;5032375;28;20492;-82
2021/10/12 04:48:17;;;;;;;853.47;801.27;;;9.70;99.90;;;;;;5033529;28;20507;-81
2021/10/12 04:50:44;;;;;;;856.23;803.97;;;9.70;99.90;;;;;;5033229;28;20936;-82
2021/10/12 04:53:11;;;;;;;851.87;799.70;;;9.80;99.90;;;;;;5033235;28;20543;-82
2021/10/12 04:55:40;;;;;;;842.80;792.83;;;9.90;99.90;;;;;;5033865;28;21017;-80
2021/10/12 04:58:08;;;;;;;839.83;790.13;;;9.80;99.90;;;;;;5033159;28;20463;-82
2021/10/12 05:00:35;;;;;;;838.37;788.90;;;9.80;99.90;;;;;;5031994;28;20951;-82
2021/10/12 05:03:02;;;;;;;836.70;787.30;;;9.80;99.90;;;;;;5032959;28;20459;-82
2021/10/12 05:05:30;;;;;;;824.20;775.00;;;9.70;99.90;;;;;;5033034;28;20460;-83
2021/10/12 05:07:57;;;;;;;815.73;767.70;;;9.80;99.90;;;;;;5032905;28;20457;-81
2021/10/12 05:10:25;;;;;;;791.50;745.70;;;9.90;99.90;;;;;;5032950;28;20476;-85
2021/10/12 05:12:52;;;;;;;794.73;748.23;;;9.90;99.90;;;;;;5032981;28;20496;-81
2021/10/12 05:15:22;;;;;;;806.97;759.60;;;9.90;99.90;;;;;;5031714;28;20456;-82
2021/10/12 05:17:50;;;;;;;812.47;764.70;;;9.90;99.90;;;;;;5032864;28;20449;-82
2021/10/12 05:20:18;;;;;;;805.23;757.90;;;9.80;99.90;;;;;;5032899;28;20484;-82
2021/10/12 05:22:47;;;;;;;805.40;758.00;;;9.90;99.90;;;;;;5032731;28;20456;-84
2021/10/12 05:25:15;;;;;;;794.07;746.47;;;9.80;99.90;;;;;;5032876;28;20456;-82
2021/10/12 05:27:43;;;;;;;802.57;756.27;;;9.90;99.90;;;;;;5032868;28;20460;-85
2021/10/12 05:30:12;;;;;;;789.67;743.07;;;9.90;99.90;;;;;;5031829;28;20823;-84
2021/10/12 05:32:40;;;;;;;794.43;747.07;;;9.90;99.90;;;;;;5032796;28;20480;-81
2021/10/12 05:35:09;;;;;;;797.00;749.37;;;9.90;99.90;;;;;;5032625;28;20460;-81
2021/10/12 05:37:36;;;;;;;798.20;750.50;;;9.90;99.90;;;;;;5032747;28;21015;-81
2021/10/12 05:40:06;;;;;;;810.03;762.17;;;9.80;99.90;;;;;;5032608;28;20572;-83
2021/10/12 05:42:33;;;;;;;808.40;760.30;;;9.80;99.90;;;;;;5032696;28;21034;-83
2021/10/12 05:45:00;;;;;;;796.40;749.43;;;9.80;99.90;;;;;;5031615;28;20453;-82
2021/10/12 05:47:26;;;;;;;788.13;742.63;;;9.90;99.90;;;;;;5033821;28;20456;-82
2021/10/12 05:49:53;;;;;;;788.07;741.17;;;9.90;99.90;;;;;;5036753;28;20951;-82
2021/10/12 05:52:22;;;;;;;798.97;752.10;;;9.90;99.90;;;;;;5036695;28;20510;-83
2021/10/12 05:54:53;;;;;;;794.10;748.57;;;9.90;99.90;;;;;;5036566;28;20448;-82
2021/10/12 05:57:34;;;;;;;792.07;746.67;;;9.90;99.90;;;;;;5036441;28;20709;-81
2021/10/12 06:00:01;;;;;;;787.40;742.23;;;9.80;99.90;;;;;;5035332;28;21003;-83
2021/10/12 06:02:28;;;;;;;770.67;727.47;;;9.90;99.90;;;;;;5036386;28;20467;-84
2021/10/12 06:04:55;;;;;;;746.83;706.03;;;9.90;99.90;;;;;;5036492;28;20460;-80
2021/10/12 06:07:21;;;;;;;737.53;697.67;;;10.00;99.90;;;;;;5035764;28;20456;-81
2021/10/12 06:09:48;;;;;;;724.73;686.50;;;10.00;99.90;;;;;;5035915;28;20579;-82
2021/10/12 06:12:15;;;;;;;707.07;670.53;;;9.90;99.90;;;;;;5036213;28;20460;-82
2021/10/12 06:14:46;;;;;;;688.93;653.60;;;9.90;99.90;;;;;;5035464;28;20456;-81
2021/10/12 06:17:13;;;;;;;718.27;680.43;;;10.00;99.90;;;;;;5036031;28;20547;-82
2021/10/12 06:19:40;;;;;;;704.67;668.00;;;10.00;99.90;;;;;;5035993;28;20572;-83
2021/10/12 06:22:09;;;;;;;714.87;676.80;;;10.00;99.90;;;;;;5036014;28;20460;-82
2021/10/12 06:24:36;;;;;;;681.13;645.27;;;10.10;99.90;;;;;;5035910;28;20459;-83
2021/10/12 06:27:03;;;;;;;655.97;622.97;;;10.10;99.90;;;;;;5035787;28;20883;-82
2021/10/12 06:29:32;;;;;;;680.33;644.77;;;10.10;99.90;;;;;;5035621;28;20456;-85
2021/10/12 06:32:00;;;;;;;653.93;621.77;;;10.20;99.90;;;;;;5035118;28;20455;-81
2021/10/12 06:34:27;;;;;;;658.53;626.23;;;10.10;99.90;;;;;;5035714;28;20543;-82
2021/10/12 06:36:53;;;;;;;627.83;598.07;;;10.10;99.90;;;;;;5035729;28;20531;-84
2021/10/12 06:39:20;;;;;;;640.97;610.10;;;10.20;99.90;;;;;;5035282;28;20515;-82
2021/10/12 06:41:47;;;;;;;586.17;559.67;;;10.20;99.90;;;;;;5035474;28;20548;-82
2021/10/12 06:44:14;;;;;;;582.53;556.10;;;10.40;99.90;;;;;;5035617;28;20857;-83
2021/10/12 06:46:41;;;;;;;600.23;571.23;;;10.20;99.90;;;;;;5034210;28;20543;-81
2021/10/12 06:49:09;;;;;;;553.27;528.70;;;10.20;99.90;;;;;;5035367;28;20452;-82
2021/10/12 06:51:36;;;;;;;537.03;512.63;;;10.20;99.90;;;;;;5035463;28;20476;-82
2021/10/12 06:54:03;;;;;;;598.33;570.30;;;10.20;99.90;;;;;;5035342;28;20487;-81
2021/10/12 06:56:31;;;;;;;641.27;610.90;;;10.30;99.90;;;;;;5035082;28;20476;-80
2021/10/12 06:58:58;;;;;;;690.37;656.37;;;10.40;99.90;;;;;;5035010;28;20519;-84
2021/10/12 07:01:25;;;;;;;706.57;670.57;;;10.30;99.90;;;;;;5034391;28;20519;-82
2021/10/12 07:03:52;;;;;;;752.43;712.13;;;10.20;99.90;;;;;;5035049;28;21021;-82
2021/10/12 07:06:20;;;;;;;789.00;743.87;;;10.20;99.90;;;;;;5035259;28;20823;-83
2021/10/12 07:08:47;;;;;;;799.53;753.67;;;10.10;99.90;;;;;;5035062;28;20900;-81
2021/10/12 07:11:14;;;;;;;785.97;739.63;;;10.20;99.90;;;;;;5035176;28;20449;-83
2021/10/12 07:13:41;;;;;;;796.73;749.30;;;10.20;99.90;;;;;;5035266;28;20476;-83
2021/10/12 07:16:08;;;;;;;783.93;736.77;;;10.10;99.90;;;;;;5034013;28;20448;-84
2021/10/12 07:18:35;;;;;;;797.93;751.37;;;10.10;99.90;;;;;;5035326;28;20452;-83
2021/10/12 07:21:02;;;;;;;787.80;742.13;;;10.20;99.90;;;;;;5034935;28;20523;-82
2021/10/12 07:23:30;;;;;;;791.93;745.20;;;10.30;99.90;;;;;;5034816;28;20514;-82
2021/10/12 07:25:57;;;;;;;777.73;734.00;;;10.20;99.90;;;;;;5034802;28;20457;-83
2021/10/12 07:28:24;;;;;;;771.63;727.83;;;10.20;99.90;;;;;;5034710;28;20962;-82
2021/10/12 07:30:51;;;;;;;786.57;741.30;;;10.30;99.90;;;;;;5033599;28;20453;-83
2021/10/12 07:33:18;;;;;;;785.27;740.30;;;10.40;99.90;;;;;;5034834;28;20518;-82
2021/10/12 07:35:44;;;;;;;786.50;741.10;;;10.40;99.90;;;;;;5034683;28;20456;-83
2021/10/12 07:38:13;;;;;;;772.63;730.17;;;10.40;99.90;;;;;;5034689;28;20559;-82
2021/10/12 07:40:43;;;;;;;759.87;718.97;;;10.50;99.90;;;;;;5034357;28;20488;-84
2021/10/12 07:43:10;;;;;;;757.77;716.77;;;10.50;99.90;;;;;;5034379;28;20456;-82
2021/10/12 07:45:37;;;;;;;773.40;729.27;;;10.60;99.90;;;;;;5033396;28;20452;-83
2021/10/12 07:48:04;;;;;;;771.07;727.77;;;10.50;99.90;;;;;;5034319;28;20495;-82
2021/10/12 07:50:32;;;;;;;772.40;728.13;;;10.60;99.90;;;;;;5026305;28;20484;-82
2021/10/12 07:52:59;;;;;;;765.10;724.10;;;10.60;99.90;;;;;;5013025;28;20960;-83
2021/10/12 07:55:35;;;;;;;777.17;733.77;;;10.60;99.90;;;;;;5013458;28;20568;-83
2021/10/12 07:58:05;;;;;;;763.07;722.53;;;10.70;99.90;;;;;;5013095;28;20547;-83
2021/10/12 08:00:32;;;;;;;771.57;728.07;;;10.70;99.90;;;;;;5011180;28;20525;-82
2021/10/12 08:02:59;;;;;;;762.27;720.07;;;10.70;99.90;;;;;;5013319;28;20891;-84
2021/10/12 08:05:27;;;;;;;794.60;748.83;;;10.70;99.90;;;;;;5013090;28;20457;-84
2021/10/12 08:07:56;;;;;;;777.80;733.37;;;10.70;99.90;;;;;;5012957;28;20479;-83
2021/10/12 08:10:26;;;;;;;807.40;759.10;;;10.70;99.90;;;;;;5012258;28;21010;-84
2021/10/12 08:12:56;;;;;;;802.30;754.90;;;10.70;99.90;;;;;;5012723;28;20540;-83
2021/10/12 08:15:26;;;;;;;811.07;762.77;;;10.80;99.90;;;;;;5011745;28;20461;-84
2021/10/12 08:17:53;;;;;;;825.37;775.13;;;10.80;99.90;;;;;;5011006;28;20964;-83
2021/10/12 08:20:20;;;;;;;830.00;779.40;;;10.70;99.90;;;;;;5013186;28;20489;-83
2021/10/12 08:22:47;;;;;;;833.93;781.87;;;10.60;99.90;;;;;;5013545;28;20453;-83
2021/10/12 08:25:16;;;;;;;840.93;788.73;;;10.60;99.90;;;;;;5013088;28;20909;-84
2021/10/12 08:27:43;;;;;;;870.27;813.00;;;10.60;99.90;;;;;;5013443;28;20480;-84
2021/10/12 08:30:12;;;;;;;872.47;815.07;;;10.70;99.90;;;;;;5012058;28;20914;-83
2021/10/12 08:32:41;;;;;;;876.37;818.47;;;10.80;99.90;;;;;;5012951;28;20458;-83
2021/10/12 08:35:09;;;;;;;877.90;818.60;;;10.80;99.90;;;;;;5015061;28;20489;-84
2021/10/12 08:37:36;;;;;;;880.93;823.43;;;10.80;99.90;;;;;;4994863;28;20512;-83
2021/10/12 08:40:04;;;;;;;918.03;845.43;;;10.70;99.90;;;;;;5012827;28;20567;-83
2021/10/12 08:42:34;;;;;;;865.77;809.03;;;10.70;99.90;;;;;;5013067;28;20456;-83
2021/10/12 08:45:04;;;;;;;870.87;812.57;;;10.70;99.90;;;;;;5011915;28;20541;-82
2021/10/12 08:47:32;;;;;;;878.77;820.20;;;10.80;99.90;;;;;;5012600;28;20615;-83
2021/10/12 08:50:02;;;;;;;882.60;825.00;;;10.70;99.90;;;;;;5012640;28;20475;-83
2021/10/12 08:52:29;;;;;;;881.63;822.60;;;10.70;99.90;;;;;;5012948;28;20998;-83
2021/10/12 08:54:56;;;;;;;875.00;817.50;;;10.70;99.90;;;;;;5012679;28;20508;-83
2021/10/12 08:57:31;;;;;;;866.13;808.27;;;10.70;99.90;;;;;;5012281;28;20903;-84
2021/10/12 09:00:00;;;;;;;867.80;809.07;;;10.80;99.90;;;;;;5011601;28;20494;-83
2021/10/12 09:02:28;;;;;;;859.77;801.10;;;10.80;99.90;;;;;;5012555;28;20488;-83
2021/10/12 09:04:56;;;;;;;862.20;804.77;;;10.90;99.90;;;;;;5013300;28;20458;-84
2021/10/12 09:07:27;;;;;;;870.63;814.03;;;11.00;99.90;;;;;;5013316;28;20585;-82
2021/10/12 09:09:56;;;;;;;873.30;817.80;;;10.90;99.90;;;;;;5013148;28;20860;-82
2021/10/12 09:12:45;;;;;;;878.07;821.57;;;10.90;99.90;;;;;;5013517;28;20457;-82
2021/10/12 09:15:12;;;;;;;870.73;814.40;;;10.90;99.90;;;;;;5011987;28;20456;-82
2021/10/12 09:17:40;;;;;;;858.17;802.00;;;10.80;99.90;;;;;;5013297;28;20536;-83
2021/10/12 09:20:29;;;;;;;832.23;776.77;;;10.90;99.90;;;;;;5013212;28;20473;-83
2021/10/12 09:23:12;;;;;;;839.00;779.80;;;10.70;99.90;;;;;;5814900;23;20476;-83
2021/10/12 09:25:40;;;;;;;828.13;769.73;;;10.80;99.90;;;;;;5033597;28;20452;-82
2021/10/12 09:28:21;;;;;;;819.27;759.97;;;10.70;99.90;;;;;;5032871;28;20535;-83
2021/10/12 09:30:48;;;;;;;813.53;752.90;;;10.70;99.90;;;;;;5031478;28;20480;-82
2021/10/12 09:33:17;;;;;;;832.47;773.27;;;10.80;99.90;;;;;;5032743;28;20582;-82
2021/10/12 09:35:44;;;;;;;817.53;757.40;;;10.70;99.90;;;;;;5033358;28;20973;-83
2021/10/12 09:38:15;;;;;;;809.23;747.73;;;10.80;99.90;;;;;;5032911;28;20445;-83
2021/10/12 09:40:48;;;;;;;819.90;757.50;;;10.90;99.90;;;;;;5032590;28;20527;-84
2021/10/12 09:43:23;;;;;;;825.67;765.43;;;11.10;99.90;;;;;;5032539;28;20460;-84
2021/10/12 09:46:31;;;;;;;;;;;;;;;;;;;;;
2021/10/12 09:49:33;;;;;;;804.30;750.80;;;10.90;99.90;;;;;;5032561;28;20452;-84
2021/10/12 09:52:18;;;;;;;803.80;749.07;;;10.80;99.90;;;;;;5032495;28;20822;-84
2021/10/12 09:55:01;;;;;;;805.00;746.97;;;10.90;99.90;;;;;;5032760;28;20873;-85
2021/10/12 09:57:47;;;;;;;810.17;751.63;;;10.90;99.90;;;;;;5032536;28;20448;-84
2021/10/12 10:00:27;;;;;;;836.20;775.83;;;10.90;99.90;;;;;;5031569;28;20831;-88
2021/10/12 10:03:46;;;;;;;830.53;769.47;;;11.00;99.90;;;;;;5032755;28;20459;-84
2021/10/12 10:06:18;;;;;;;842.93;781.50;;;11.00;99.90;;;;;;4982939;28;20453;-85
2021/10/12 10:08:54;;;;;;;849.37;787.80;;;11.20;99.90;;;;;;5032548;28;20487;-85
2021/10/12 10:11:29;;;;;;;831.00;770.70;;;11.30;99.90;;;;;;5032710;28;20452;-91
2021/10/12 10:13:58;;;;;;;835.43;775.40;;;11.40;99.90;;;;;;5032694;28;20447;-85
2021/10/12 10:16:27;;;;;;;845.40;787.97;;;11.50;99.90;;;;;;5031435;28;20531;-84
2021/10/12 10:18:56;;;;;;;839.50;785.17;;;11.50;99.90;;;;;;5032296;28;20544;-84
2021/10/12 10:21:25;;;;;;;830.20;777.23;;;11.50;99.90;;;;;;5032349;28;20574;-86
2021/10/12 10:24:00;;;;;;;833.47;779.37;;;11.60;99.90;;;;;;5032269;28;20570;-86
2021/10/12 10:26:32;;;;;;;827.57;773.20;;;11.70;99.90;;;;;;5032417;28;20458;-84
2021/10/12 10:29:25;;;;;;;823.17;771.60;;;11.80;99.90;;;;;;5032253;28;20472;-84
2021/10/12 10:31:54;;;;;;;812.47;762.87;;;11.80;99.90;;;;;;5031295;28;20603;-83
2021/10/12 10:34:36;;;;;;;813.10;763.23;;;11.90;99.90;;;;;;5034624;28;20452;-83
2021/10/12 10:37:22;;;;;;;764.87;722.57;;;12.00;99.90;;;;;;5035869;28;20456;-82
2021/10/12 10:39:51;;;;;;;804.03;754.60;;;12.00;99.90;;;;;;5036408;28;20468;-83
2021/10/12 10:43:06;;;;;;;820.30;768.80;;;12.30;99.90;;;;;;5023740;28;20492;-83
2021/10/12 10:45:48;;;;;;;757.70;714.83;;;12.50;99.90;;;;;;5013795;28;20460;-82
2021/10/12 10:48:18;;;;;;;671.03;634.70;;;12.50;99.90;;;;;;5014501;28;20496;-81
2021/10/12 10:50:47;;;;;;;663.13;625.13;;;12.70;99.90;;;;;;5014157;28;20465;-82
2021/10/12 10:53:29;;;;;;;618.87;580.97;;;12.70;99.90;;;;;;5014360;28;20532;-83
2021/10/12 10:56:00;;;;;;;525.27;496.67;;;12.70;99.90;;;;;;5014290;28;20464;-82
2021/10/12 10:58:27;;;;;;;555.87;520.27;;;12.50;99.90;;;;;;5014175;28;20895;-83
2021/10/12 11:00:56;;;;;;;486.57;459.37;;;12.50;99.90;;;;;;5013926;28;20480;-82
2021/10/12 11:03:39;;;;;;;635.30;596.67;;;12.20;99.90;;;;;;5014522;28;20553;-82
2021/10/12 11:06:14;;;;;;;558.80;521.60;;;12.20;99.90;;;;;;5015546;28;20276;-81
2021/10/12 11:08:55;;;;;;;548.80;516.50;;;12.20;99.90;;;;;;5015400;28;20879;-81
2021/10/12 11:11:22;;;;;;;633.53;596.73;;;12.30;99.90;;;;;;5015446;28;20456;-82
2021/10/12 11:13:49;;;;;;;672.37;633.37;;;12.30;99.90;;;;;;5015398;28;20523;-83
2021/10/12 11:16:19;;;;;;;682.13;641.83;;;12.30;99.90;;;;;;5014122;28;20449;-85
2021/10/12 11:18:47;;;;;;;670.17;631.70;;;12.30;99.90;;;;;;5015454;28;20539;-86
2021/10/12 11:21:17;;;;;;;696.30;656.57;;;12.40;99.90;;;;;;5014872;28;20492;-85
2021/10/12 11:23:54;;;;;;;678.57;639.17;;;12.40;99.90;;;;;;5015057;28;20844;-85
2021/10/12 11:26:27;;;;;;;707.50;666.80;;;12.20;99.90;;;;;;5015072;28;20452;-84
2021/10/12 11:29:02;;;;;;;737.60;692.90;;;12.20;99.90;;;;;;5015138;28;20463;-83
2021/10/12 11:31:34;;;;;;;760.07;713.57;;;12.20;99.90;;;;;;5013820;28;20557;-83
2021/10/12 11:34:07;;;;;;;779.43;730.67;;;12.10;99.90;;;;;;5014760;28;20596;-82
2021/10/12 11:36:59;;;;;;;794.77;747.47;;;12.10;99.90;;;;;;5015064;28;20528;-82
2021/10/12 11:39:40;;;;;;;794.83;743.00;;;11.90;99.90;;;;;;5010266;28;20540;-82
2021/10/12 11:42:10;;;;;;;796.40;742.60;;;12.10;99.90;;;;;;5014670;28;20524;-83
2021/10/12 11:44:37;;;;;;;815.50;759.43;;;12.00;99.90;;;;;;5013100;28;20492;-83
2021/10/12 11:47:06;;;;;;;819.13;762.00;;;12.00;99.90;;;;;;5014377;28;20489;-84
2021/10/12 11:49:35;;;;;;;820.33;760.93;;;12.00;99.90;;;;;;5014819;28;20453;-83
2021/10/12 11:52:06;;;;;;;830.67;772.00;;;12.10;99.90;;;;;;5014595;28;20465;-82
2021/10/12 11:54:33;;;;;;;831.53;772.00;;;12.20;99.90;;;;;;5014587;28;20957;-83
2021/10/12 12:00:40;;;;;;;814.53;759.27;;;12.20;99.90;;;;;;5014541;28;20491;-83
2021/10/12 12:03:21;;;;;;;819.20;763.30;;;12.30;99.90;;;;;;5014499;28;20500;-83
2021/10/12 12:05:59;;;;;;;817.87;763.63;;;12.40;99.90;;;;;;5014347;28;20863;-84
2021/10/12 12:08:38;;;;;;;805.40;754.00;;;12.40;99.90;;;;;;5014357;28;20453;-84
2021/10/12 12:11:05;;;;;;;810.73;757.87;;;12.60;99.90;;;;;;5014327;28;20457;-83
2021/10/12 12:16:35;;;;;;;783.83;739.80;;;12.70;99.90;;;;;;5012861;28;20818;-83
2021/10/12 12:19:22;;;;;;;751.03;710.10;;;12.70;99.90;;;;;;5014143;28;20453;-83
2021/10/12 12:21:49;;;;;;;772.13;729.33;;;12.70;99.90;;;;;;5014044;28;20484;-84
2021/10/12 12:24:22;;;;;;;753.77;712.67;;;12.80;99.90;;;;;;5013986;28;20459;-84
2021/10/12 12:27:01;;;;;;;727.33;688.23;;;12.80;99.90;;;;;;5013171;28;20540;-83
2021/10/12 12:29:28;;;;;;;715.57;676.90;;;12.90;99.90;;;;;;5014190;28;20532;-82